Current Weather

Aurora Muni

Aurora, Illinois (KARR)

Report from: Monday, August 15, 2022 8:52 PM CDT
Current time: Monday, August 15, 2022 9:03 PM CDT

Nearby weather
Weather history
Weather forecast

Temperature18.9°C (66.0°F)
Dew point15.0°C (59.0°F)
Winds 5 kts (2.6 m/s, 5.8 mph) North-Northeast (20°)
Visibility10 mi. (16.1 km)
Clouds Sky clear
Altimeter30.08 in.Hg (1019 mB)
Relative humidity78 %
Density altitude512 ft. (156 m)
Sea-level pressure101.8 kPa (1018 mB, 30.07 in.Hg)
Remarks Fully automated report
Automated weather observing station with precipitation discriminator
Flight conditions Visual Meteorological Conditions
Raw dataKARR 160152Z AUTO 02005KT 10SM CLR 19/15 A3008 RMK AO2 SLP184 T01890150
An error has occurred. This application may no longer respond until reloaded. Reload 🗙